Time;durP1;ratioP1;P1;durP2;ratioP2;P2;SDS_P1;SDS_P2;PMS_P1;PMS_P2;Temp;Humidity;BMP_temperature;BMP_pressure;BME280_temperature;BME280_humidity;BME280_pressure;Samples;Min_cycle;Max_cycle;Signal;HPM_P1;HPM_P2
2022/07/13 00:02:19;;;;;;;3.73;1.40;;;;;;;23.83;55.21;100959.94;5069452;28;20460;-62
2022/07/13 00:04:44;;;;;;;2.47;1.30;;;;;;;23.82;55.09;100956.19;5069700;28;20167;-62
2022/07/13 00:07:10;;;;;;;3.10;1.30;;;;;;;23.83;55.16;100957.03;5069532;28;20194;-62
2022/07/13 00:09:35;;;;;;;3.00;1.20;;;;;;;23.83;55.19;100952.06;5069172;28;20226;-62
2022/07/13 00:12:01;;;;;;;3.60;1.33;;;;;;;23.83;55.28;100954.16;5069380;28;20182;-62
2022/07/13 00:14:26;;;;;;;2.70;1.50;;;;;;;23.83;54.92;100952.06;5070227;28;20163;-62
2022/07/13 00:16:51;;;;;;;3.03;1.43;;;;;;;23.82;55.48;100944.66;5070783;28;20574;-62
2022/07/13 00:19:17;;;;;;;2.70;1.60;;;;;;;23.82;54.92;100943.81;5071195;28;20182;-62
2022/07/13 00:21:42;;;;;;;3.23;1.00;;;;;;;23.81;54.75;100943.00;5073099;28;20215;-62
2022/07/13 00:24:08;;;;;;;2.30;1.23;;;;;;;23.81;55.14;100948.78;5090892;28;20544;-62
2022/07/13 00:26:33;;;;;;;8.27;1.70;;;;;;;23.79;55.27;100933.91;5090521;28;20182;-62
2022/07/13 00:28:59;;;;;;;2.73;1.47;;;;;;;23.81;55.10;100930.63;5090876;28;20170;-62
2022/07/13 00:31:24;;;;;;;3.10;1.30;;;;;;;23.81;55.23;100940.13;5090573;28;20177;-62
2022/07/13 00:33:50;;;;;;;3.90;1.20;;;;;;;23.76;54.89;100946.28;5090850;28;20179;-62
2022/07/13 00:36:15;;;;;;;5.70;1.40;;;;;;;23.73;55.16;100935.53;5089819;28;20572;-62
2022/07/13 00:38:41;;;;;;;3.67;1.53;;;;;;;23.72;54.83;100936.75;5089323;28;20638;-62
2022/07/13 00:41:06;;;;;;;3.80;1.40;;;;;;;23.73;54.85;100935.53;5088946;28;20198;-62
2022/07/13 00:43:32;;;;;;;3.90;1.73;;;;;;;23.75;55.33;100926.47;5089370;28;20182;-62
2022/07/13 00:45:57;;;;;;;6.50;1.37;;;;;;;23.77;54.88;100929.78;5089173;28;20190;-62
2022/07/13 00:48:23;;;;;;;2.90;1.47;;;;;;;23.76;55.43;100922.38;5089206;28;20692;-62
2022/07/13 00:50:49;;;;;;;2.53;1.30;;;;;;;23.77;55.03;100930.63;5086259;28;20499;-62
2022/07/13 00:53:14;;;;;;;2.37;1.40;;;;;;;23.77;55.41;100926.91;5072211;28;20270;-62
2022/07/13 00:55:40;;;;;;;2.10;1.10;;;;;;;23.77;55.09;100926.91;5072751;28;20424;-62
2022/07/13 00:58:08;;;;;;;2.17;1.30;;;;;;;23.74;54.79;100937.19;5074234;28;20171;-61
2022/07/13 01:00:33;;;;;;;2.03;1.17;;;;;;;23.72;54.88;100933.88;5074392;28;20203;-61
2022/07/13 01:02:59;;;;;;;3.47;1.30;;;;;;;23.70;54.84;100930.59;5072711;28;20416;-61
2022/07/13 01:05:24;;;;;;;2.67;1.23;;;;;;;23.68;54.39;100921.50;5073933;28;20179;-61
2022/07/13 01:07:49;;;;;;;2.90;1.43;;;;;;;23.63;55.18;100918.97;5073824;28;20222;-62
2022/07/13 01:10:15;;;;;;;2.97;1.43;;;;;;;23.64;55.08;100928.47;5073613;28;20183;-61
2022/07/13 01:12:40;;;;;;;4.23;1.57;;;;;;;23.65;54.92;100913.66;5074037;28;20175;-61
2022/07/13 01:15:06;;;;;;;3.93;1.57;;;;;;;23.67;55.17;100913.22;5090970;28;20552;-61
2022/07/13 01:17:32;;;;;;;4.80;1.57;;;;;;;23.69;55.10;100913.69;5094182;28;20589;-61
2022/07/13 01:19:58;;;;;;;2.53;1.20;;;;;;;23.72;54.99;100915.75;5092763;28;20692;-61
2022/07/13 01:22:31;;;;;;;4.00;1.70;;;;;;;23.72;55.09;100916.59;5093979;28;20464;-61
2022/07/13 01:24:57;;;;;;;2.67;1.50;;;;;;;23.68;54.68;100915.72;5094060;28;20169;-61
2022/07/13 01:27:22;;;;;;;3.20;1.40;;;;;;;23.64;54.91;100911.97;5092466;28;20440;-61
2022/07/13 01:29:48;;;;;;;2.63;1.37;;;;;;;23.62;54.97;100917.34;5093691;28;20193;-61
2022/07/13 01:32:13;;;;;;;4.50;1.77;;;;;;;23.63;55.31;100916.09;5093243;28;20660;-61
2022/07/13 01:34:42;;;;;;;4.20;1.30;;;;;;;23.65;54.98;100921.47;5093764;28;20178;-61
2022/07/13 01:37:07;;;;;;;3.13;1.40;;;;;;;23.65;55.41;100916.53;5094213;28;20193;-61
2022/07/13 01:39:32;;;;;;;2.13;1.33;;;;;;;23.67;55.16;100914.06;5092530;28;20412;-62
2022/07/13 01:41:58;;;;;;;2.87;2.10;;;;;;;23.68;55.33;100912.84;5093741;28;20210;-62
2022/07/13 01:44:23;;;;;;;3.63;1.57;;;;;;;23.66;54.98;100915.31;5093486;28;20178;-62
2022/07/13 01:46:49;;;;;;;2.33;1.37;;;;;;;23.66;55.07;100908.69;5092081;28;20182;-62
2022/07/13 01:49:14;;;;;;;2.93;1.70;;;;;;;23.64;55.13;100914.06;5093572;28;20228;-62
2022/07/13 01:51:40;;;;;;;4.30;1.83;;;;;;;23.62;55.21;100894.28;5083059;28;20183;-62
2022/07/13 01:54:05;;;;;;;3.90;1.60;;;;;;;23.63;55.18;100895.91;5073573;28;20187;-62
2022/07/13 01:56:32;;;;;;;4.90;1.50;;;;;;;23.63;55.01;100889.34;5073414;28;20179;-61
2022/07/13 01:59:00;;;;;;;3.67;1.70;;;;;;;23.64;55.35;100897.56;5073244;28;20269;-61
2022/07/13 02:01:26;;;;;;;4.20;1.47;;;;;;;23.64;55.26;100896.75;5072801;28;20522;-61
2022/07/13 02:03:51;;;;;;;3.70;1.87;;;;;;;23.65;55.19;100899.25;5071253;28;20429;-61
2022/07/13 02:06:17;;;;;;;2.63;1.73;;;;;;;23.65;55.29;100905.00;5071318;28;20551;-61
2022/07/13 02:08:45;;;;;;;2.60;1.40;;;;;;;23.66;55.11;100897.16;5071128;28;20230;-61
2022/07/13 02:11:17;;;;;;;3.77;1.60;;;;;;;23.65;55.17;100892.63;5071222;28;20607;-61
2022/07/13 02:13:44;;;;;;;3.80;1.97;;;;;;;23.65;55.17;100899.25;5071678;28;20483;-61
2022/07/13 02:16:10;;;;;;;5.70;1.33;;;;;;;23.65;55.01;100893.47;5070994;28;20436;-61
2022/07/13 02:18:35;;;;;;;3.17;1.57;;;;;;;23.65;55.21;100889.75;5072281;28;20417;-61
2022/07/13 02:21:01;;;;;;;3.73;1.80;;;;;;;23.63;54.90;100884.38;5075335;28;20252;-61
2022/07/13 02:23:26;;;;;;;3.10;1.33;;;;;;;23.61;55.12;100872.44;5092867;28;20531;-62
2022/07/13 02:25:52;;;;;;;3.40;1.43;;;;;;;23.61;55.23;100878.22;5092688;28;20208;-61
2022/07/13 02:28:17;;;;;;;3.30;1.53;;;;;;;23.62;55.54;100879.84;5093309;28;20269;-61
2022/07/13 02:30:43;;;;;;;2.80;1.50;;;;;;;23.61;55.38;100880.25;5092719;28;20175;-61
2022/07/13 02:33:08;;;;;;;4.60;1.63;;;;;;;23.61;54.86;100886.00;5092577;28;20183;-61
2022/07/13 02:35:34;;;;;;;3.60;1.53;;;;;;;23.61;55.32;100886.84;5092880;28;20807;-61
2022/07/13 02:37:59;;;;;;;5.57;1.73;;;;;;;23.62;54.91;100887.66;5092644;28;20175;-61
2022/07/13 02:40:24;;;;;;;2.60;1.40;;;;;;;23.61;55.26;100888.91;5092763;28;20186;-61
2022/07/13 02:42:50;;;;;;;2.80;1.40;;;;;;;23.61;54.98;100897.53;5092066;28;20186;-61
2022/07/13 02:45:15;;;;;;;4.57;1.60;;;;;;;23.59;54.66;100897.94;5092368;28;20186;-61
2022/07/13 02:47:41;;;;;;;4.97;1.87;;;;;;;23.59;54.91;100889.28;5092312;28;20174;-61
2022/07/13 02:50:07;;;;;;;2.60;1.60;;;;;;;23.58;55.05;100889.72;5092771;28;20182;-61
2022/07/13 02:52:32;;;;;;;5.13;1.37;;;;;;;23.56;54.53;100884.34;5092229;28;20222;-61
2022/07/13 02:54:58;;;;;;;12.77;2.10;;;;;;;23.56;54.78;100878.59;5092382;28;20197;-61
2022/07/13 02:57:24;;;;;;;3.00;1.47;;;;;;;23.55;54.92;100876.94;5092147;28;20178;-61
2022/07/13 02:59:50;;;;;;;3.00;1.43;;;;;;;23.55;55.00;100876.94;5092154;28;20493;-61
2022/07/13 03:02:17;;;;;;;2.93;1.10;;;;;;;23.56;54.80;100881.47;5091798;28;20531;-61
2022/07/13 03:04:42;;;;;;;3.13;1.60;;;;;;;23.57;55.05;100879.38;5091877;28;20206;-61
2022/07/13 03:07:08;;;;;;;2.20;1.50;;;;;;;23.56;55.18;100886.38;5091900;28;20436;-61
2022/07/13 03:09:33;;;;;;;4.77;1.77;;;;;;;23.54;54.83;100886.78;5091873;28;20822;-61
2022/07/13 03:11:59;;;;;;;4.40;1.80;;;;;;;23.55;54.88;100888.47;5091960;28;20553;-61
2022/07/13 03:14:24;;;;;;;6.03;1.73;;;;;;;23.54;54.88;100881.03;5091950;28;20174;-61
2022/07/13 03:16:49;;;;;;;2.30;1.30;;;;;;;23.55;54.97;100879.81;5091047;28;20172;-61
2022/07/13 03:19:15;;;;;;;2.60;1.60;;;;;;;23.54;54.89;100875.25;5091628;28;20178;-61
2022/07/13 03:21:40;;;;;;;3.67;1.77;;;;;;;23.54;54.85;100874.44;5091781;28;20217;-61
2022/07/13 03:24:06;;;;;;;2.50;1.37;;;;;;;23.55;54.73;100876.09;5092257;28;20178;-61
2022/07/13 03:26:31;;;;;;;3.10;1.53;;;;;;;23.55;54.65;100876.09;5091758;28;20171;-61
2022/07/13 03:28:56;;;;;;;8.23;2.00;;;;;;;23.53;54.82;100862.06;5091256;28;20170;-61
2022/07/13 03:31:22;;;;;;;2.97;1.60;;;;;;;23.51;54.79;100858.78;5089879;28;20299;-61
2022/07/13 03:33:48;;;;;;;6.27;1.80;;;;;;;23.51;54.56;100855.06;5089421;28;20538;-61
2022/07/13 03:36:14;;;;;;;2.37;1.53;;;;;;;23.50;54.30;100844.75;5089808;28;20178;-61
2022/07/13 03:38:40;;;;;;;5.17;1.67;;;;;;;23.48;54.65;100842.28;5089346;28;20476;-61
2022/07/13 03:41:05;;;;;;;3.17;1.50;;;;;;;23.48;54.24;100836.50;5091115;28;20186;-61
2022/07/13 03:43:31;;;;;;;3.30;1.60;;;;;;;23.47;54.51;100823.34;5090923;28;20700;-61
2022/07/13 03:45:56;;;;;;;6.80;1.87;;;;;;;23.48;54.46;100827.06;5091419;28;20179;-61
2022/07/13 03:48:22;;;;;;;2.63;1.73;;;;;;;23.47;54.88;100811.81;5091153;28;20185;-61
2022/07/13 03:50:47;;;;;;;8.10;2.03;;;;;;;23.45;54.44;100807.69;5087757;28;20213;-61
2022/07/13 03:53:13;;;;;;;3.80;1.63;;;;;;;23.44;54.08;100812.59;5069060;28;20179;-63
2022/07/13 03:55:42;;;;;;;4.73;1.87;;;;;;;23.45;54.50;100811.41;5069109;28;20262;-63
2022/07/13 03:58:08;;;;;;;3.87;1.30;;;;;;;23.42;54.92;100812.19;5070034;28;20834;-62
2022/07/13 04:00:34;;;;;;;6.37;2.00;;;;;;;23.45;54.16;100825.81;5069742;28;20475;-62
2022/07/13 04:02:59;;;;;;;3.70;1.60;;;;;;;23.45;54.76;100822.94;5069020;28;20421;-62
2022/07/13 04:05:25;;;;;;;5.13;2.03;;;;;;;23.46;54.45;100826.63;5068897;28;20540;-62
2022/07/13 04:07:51;;;;;;;3.20;1.40;;;;;;;23.45;54.27;100831.56;5068805;28;20229;-62
2022/07/13 04:10:19;;;;;;;4.77;1.80;;;;;;;23.43;54.71;100825.38;5068978;28;20421;-62
2022/07/13 04:12:45;;;;;;;2.23;1.40;;;;;;;23.43;54.22;100834.00;5065969;28;20182;-63
2022/07/13 04:15:11;;;;;;;3.20;1.60;;;;;;;23.43;54.66;100834.00;5066057;28;20422;-63
2022/07/13 04:17:36;;;;;;;3.63;2.00;;;;;;;23.41;54.16;100842.25;5068505;28;20512;-63
2022/07/13 04:20:02;;;;;;;5.47;1.50;;;;;;;23.34;54.08;100853.69;5084074;28;20189;-63
2022/07/13 04:22:28;;;;;;;3.57;1.50;;;;;;;23.29;53.83;100851.19;5072009;28;20303;-63
2022/07/13 04:24:53;;;;;;;4.47;1.43;;;;;;;23.27;53.94;100864.34;5067756;28;20421;-63
2022/07/13 04:27:18;;;;;;;4.20;2.00;;;;;;;23.25;53.60;100861.88;5080500;28;20178;-63
2022/07/13 04:29:44;;;;;;;3.80;1.67;;;;;;;23.27;53.67;100859.41;5094105;28;20716;-63
2022/07/13 04:32:09;;;;;;;3.50;1.70;;;;;;;23.28;53.72;100855.31;5094081;28;20170;-63
2022/07/13 04:34:35;;;;;;;4.30;1.90;;;;;;;23.30;53.77;100852.88;5093503;28;20212;-63
2022/07/13 04:37:00;;;;;;;3.40;1.80;;;;;;;23.33;53.57;100851.25;5093921;28;20178;-62
2022/07/13 04:39:26;;;;;;;3.57;1.60;;;;;;;23.35;53.63;100858.25;5092731;28;20182;-61
2022/07/13 04:41:51;;;;;;;7.90;2.00;;;;;;;23.31;53.90;100860.28;5094672;28;20567;-61
2022/07/13 04:44:16;;;;;;;3.60;1.50;;;;;;;23.32;53.77;100856.16;5094417;28;20597;-62
2022/07/13 04:46:42;;;;;;;6.30;1.90;;;;;;;23.33;54.13;100846.28;5094595;28;20633;-61
2022/07/13 04:49:07;;;;;;;3.53;1.83;;;;;;;23.34;54.31;100842.16;5094525;28;20477;-62
2022/07/13 04:51:35;;;;;;;2.50;1.60;;;;;;;23.35;54.05;100843.00;5095271;28;20201;-62
2022/07/13 04:54:01;;;;;;;3.30;1.60;;;;;;;23.36;54.24;100839.75;5094518;28;20179;-62
2022/07/13 04:56:27;;;;;;;3.63;2.00;;;;;;;23.36;53.85;100836.00;5093011;28;20420;-62
2022/07/13 04:58:52;;;;;;;5.73;1.57;;;;;;;23.37;54.24;100834.78;5093314;28;20186;-62
2022/07/13 05:01:18;;;;;;;4.77;1.57;;;;;;;23.35;54.33;100843.84;5092769;28;20190;-62
2022/07/13 05:03:43;;;;;;;3.17;1.53;;;;;;;23.36;54.15;100842.63;5092786;28;20174;-62
2022/07/13 05:06:08;;;;;;;4.60;1.50;;;;;;;23.36;54.14;100833.13;5092793;28;20190;-63
2022/07/13 05:08:34;;;;;;;4.70;1.60;;;;;;;23.38;53.87;100842.22;5091529;28;20234;-62
2022/07/13 05:10:59;;;;;;;2.80;1.67;;;;;;;23.40;54.29;100845.53;5093857;28;20643;-62
2022/07/13 05:13:25;;;;;;;3.33;1.40;;;;;;;23.40;54.28;100852.13;5094212;28;20630;-62
2022/07/13 05:15:50;;;;;;;3.17;1.50;;;;;;;23.40;54.49;100852.13;5094198;28;20170;-62
2022/07/13 05:18:16;;;;;;;5.20;1.93;;;;;;;23.40;54.25;100862.81;5094111;28;20193;-62
2022/07/13 05:20:41;;;;;;;3.77;1.67;;;;;;;23.37;54.74;100867.31;5093871;28;20198;-62
2022/07/13 05:23:06;;;;;;;3.03;1.90;;;;;;;23.36;54.77;100873.47;5093985;28;20182;-62
2022/07/13 05:25:32;;;;;;;4.17;1.53;;;;;;;23.36;54.66;100877.19;5093983;28;20171;-62
2022/07/13 05:27:57;;;;;;;2.80;1.50;;;;;;;23.39;54.72;100872.69;5093848;28;20189;-62
2022/07/13 05:30:23;;;;;;;4.67;1.70;;;;;;;23.42;54.44;100875.59;5094046;28;20182;-62
2022/07/13 05:32:48;;;;;;;6.80;2.17;;;;;;;23.44;54.50;100873.13;5093725;28;20186;-62
2022/07/13 05:35:14;;;;;;;4.03;1.93;;;;;;;23.43;54.49;100874.34;5093336;28;20183;-62
2022/07/13 05:37:39;;;;;;;4.57;2.30;;;;;;;23.39;55.05;100870.63;5093850;28;20251;-62
2022/07/13 05:40:05;;;;;;;4.40;1.70;;;;;;;23.38;55.16;100879.69;5092362;28;20179;-62
2022/07/13 05:42:31;;;;;;;4.93;2.90;;;;;;;23.36;54.87;100882.13;5093211;28;20220;-62
2022/07/13 05:44:56;;;;;;;5.00;3.07;;;;;;;23.37;55.17;100886.66;5093482;28;20416;-62
2022/07/13 05:47:22;;;;;;;3.20;2.00;;;;;;;23.39;55.47;100884.22;5093716;28;20261;-62
2022/07/13 05:49:47;;;;;;;10.83;4.50;;;;;;;23.36;55.77;100882.97;5093765;28;20171;-62
2022/07/13 05:52:13;;;;;;;7.07;3.40;;;;;;;23.36;55.16;100879.25;5093513;28;20178;-62
2022/07/13 05:54:38;;;;;;;5.97;3.57;;;;;;;23.35;55.42;100887.06;5093368;28;20239;-62
2022/07/13 05:57:04;;;;;;;5.70;3.23;;;;;;;23.36;55.35;100882.13;5093566;28;20618;-62
2022/07/13 05:59:29;;;;;;;10.17;3.67;;;;;;;23.36;55.67;100874.31;5093262;28;20178;-62
2022/07/13 06:01:55;;;;;;;8.40;3.90;;;;;;;23.38;55.56;100874.72;5093173;28;20210;-62
2022/07/13 06:04:20;;;;;;;5.53;2.93;;;;;;;23.39;55.53;100878.47;5093134;28;20182;-62
2022/07/13 06:06:46;;;;;;;5.10;2.73;;;;;;;23.38;55.43;100877.63;5093381;28;20217;-62
2022/07/13 06:09:12;;;;;;;10.83;3.10;;;;;;;23.40;55.37;100871.47;5092857;28;20260;-62
2022/07/13 06:11:38;;;;;;;4.77;3.10;;;;;;;23.38;55.75;100871.03;5093160;28;20456;-62
2022/07/13 06:14:03;;;;;;;8.43;2.97;;;;;;;23.35;56.31;100864.03;5092642;28;20252;-63
2022/07/13 06:16:28;;;;;;;5.30;2.47;;;;;;;23.36;55.67;100867.72;5093255;28;20181;-62
2022/07/13 06:18:57;;;;;;;4.70;2.50;;;;;;;23.36;55.60;100864.84;5092988;28;20189;-62
2022/07/13 06:21:22;;;;;;;6.87;2.60;;;;;;;23.36;55.80;100862.78;5093073;28;20665;-62
2022/07/13 06:23:47;;;;;;;7.57;2.90;;;;;;;23.36;55.99;100862.78;5093099;28;20501;-62
2022/07/13 06:26:13;;;;;;;6.90;2.53;;;;;;;23.35;56.57;100860.31;5092714;28;20179;-62
2022/07/13 06:28:38;;;;;;;4.70;3.07;;;;;;;23.35;55.94;100866.91;5092774;28;20177;-62
2022/07/13 06:31:04;;;;;;;6.07;2.47;;;;;;;23.38;56.19;100862.41;5092641;28;20197;-62
2022/07/13 06:33:29;;;;;;;7.40;2.90;;;;;;;23.35;56.31;100863.19;5092670;28;20633;-62
2022/07/13 06:35:55;;;;;;;5.20;2.30;;;;;;;23.34;56.60;100852.88;5092851;28;20642;-62
2022/07/13 06:38:20;;;;;;;3.57;2.20;;;;;;;23.34;56.43;100859.47;5092734;28;20224;-62
2022/07/13 06:40:49;;;;;;;4.80;2.60;;;;;;;23.35;56.39;100858.25;5092198;28;20258;-62
2022/07/13 06:43:15;;;;;;;5.20;2.57;;;;;;;23.39;56.19;100864.03;5092135;28;20632;-62
2022/07/13 06:45:41;;;;;;;4.37;2.47;;;;;;;23.40;56.27;100862.81;5091932;28;20416;-62
2022/07/13 06:48:06;;;;;;;3.50;2.30;;;;;;;23.34;56.66;100858.66;5092716;28;20189;-62
2022/07/13 06:50:31;;;;;;;4.60;2.40;;;;;;;23.35;56.69;100851.66;5090344;28;20182;-62
2022/07/13 06:52:57;;;;;;;5.83;2.50;;;;;;;23.34;56.39;100859.47;5071865;28;20183;-62
2022/07/13 06:55:23;;;;;;;7.60;2.33;;;;;;;23.35;56.60;100861.16;5071941;28;20218;-62
2022/07/13 06:57:48;;;;;;;3.50;2.23;;;;;;;23.39;56.40;100855.41;5072090;28;20190;-62
2022/07/13 07:00:13;;;;;;;6.63;2.07;;;;;;;23.40;56.50;100857.88;5072144;28;20170;-62
2022/07/13 07:02:39;;;;;;;6.53;2.20;;;;;;;23.38;56.68;100871.03;5071851;28;20218;-62
2022/07/13 07:05:07;;;;;;;5.27;1.83;;;;;;;23.39;56.73;100864.84;5071708;28;20541;-62
2022/07/13 07:07:33;;;;;;;5.43;2.20;;;;;;;23.39;56.72;100861.97;5071541;28;20195;-62
2022/07/13 07:09:58;;;;;;;8.07;2.00;;;;;;;23.39;56.68;100867.72;5071439;28;20416;-62
2022/07/13 07:12:23;;;;;;;4.00;2.00;;;;;;;23.42;56.72;100878.47;5071598;28;20186;-62
2022/07/13 07:14:49;;;;;;;4.50;2.10;;;;;;;23.41;56.99;100871.06;5071985;28;20163;-62
2022/07/13 07:17:16;;;;;;;5.73;1.93;;;;;;;23.43;56.97;100883.00;5071725;28;20183;-62
2022/07/13 07:19:41;;;;;;;6.80;2.20;;;;;;;23.37;57.39;100870.19;5071168;28;20270;-62
2022/07/13 07:22:07;;;;;;;4.03;2.27;;;;;;;23.39;57.09;100873.50;5071279;28;20560;-62
2022/07/13 07:24:32;;;;;;;3.07;1.97;;;;;;;23.39;57.11;100869.81;5071143;28;20175;-62
2022/07/13 07:26:58;;;;;;;4.97;2.17;;;;;;;23.11;58.26;100881.06;5078354;28;20186;-62
2022/07/13 07:29:23;;;;;;;4.13;1.77;;;;;;;23.22;58.10;100879.97;5091443;28;20242;-62
2022/07/13 07:31:49;;;;;;;6.50;2.33;;;;;;;23.24;58.39;100874.63;5091547;28;20514;-62
2022/07/13 07:34:14;;;;;;;4.80;2.03;;;;;;;23.32;57.50;100879.22;5091110;28;20204;-62
2022/07/13 07:36:42;;;;;;;5.13;2.03;;;;;;;23.36;58.02;100880.09;5091121;28;20166;-62
2022/07/13 07:39:08;;;;;;;3.53;1.80;;;;;;;23.32;57.99;100876.34;5090523;28;20259;-62
2022/07/13 07:41:33;;;;;;;2.80;1.47;;;;;;;23.21;59.03;100869.66;5089253;28;20969;-62
2022/07/13 07:43:59;;;;;;;3.80;1.87;;;;;;;23.30;57.90;100873.03;5089695;28;20159;-62
2022/07/13 07:46:24;;;;;;;5.80;1.87;;;;;;;23.34;57.74;100876.75;5089017;28;20729;-62
2022/07/13 07:48:50;;;;;;;6.53;2.60;;;;;;;23.30;58.25;100870.16;5087715;28;20167;-62
2022/07/13 07:51:15;;;;;;;4.70;1.70;;;;;;;23.32;58.00;100861.94;5087703;28;20182;-62
2022/07/13 07:53:40;;;;;;;6.50;2.10;;;;;;;23.34;58.15;100868.09;5087832;28;20191;-62
2022/07/13 07:56:06;;;;;;;3.00;1.97;;;;;;;23.30;57.08;100870.16;5089449;28;20185;-62
2022/07/13 07:58:32;;;;;;;6.30;1.73;;;;;;;23.25;56.60;100876.28;5089288;28;20259;-62
2022/07/13 08:00:57;;;;;;;6.23;2.20;;;;;;;23.30;57.52;100873.03;5090617;28;20720;-62
2022/07/13 08:03:23;;;;;;;4.70;2.07;;;;;;;23.38;57.49;100863.19;5090962;28;20178;-62
2022/07/13 08:05:51;;;;;;;3.50;1.60;;;;;;;23.42;57.17;100866.94;5090021;28;20271;-62
2022/07/13 08:08:17;;;;;;;2.10;1.40;;;;;;;23.46;57.11;100856.28;5089262;28;20226;-62
2022/07/13 08:10:43;;;;;;;5.27;1.70;;;;;;;23.43;57.16;100867.78;5089480;28;20431;-62
2022/07/13 08:13:08;;;;;;;3.10;1.83;;;;;;;23.41;56.42;100864.47;5089641;28;20173;-62
2022/07/13 08:15:34;;;;;;;3.03;1.90;;;;;;;23.42;56.65;100861.19;5089051;28;20189;-62
2022/07/13 08:17:59;;;;;;;5.23;1.70;;;;;;;23.45;56.47;100866.16;5089320;28;20182;-62
2022/07/13 08:20:25;;;;;;;3.83;2.10;;;;;;;23.42;56.47;100863.22;5090258;28;20179;-62
2022/07/13 08:22:50;;;;;;;2.73;1.57;;;;;;;23.49;56.26;100857.53;5090264;28;20178;-62
2022/07/13 08:25:16;;;;;;;3.57;1.70;;;;;;;23.51;56.40;100858.78;5089484;28;20546;-62
2022/07/13 08:27:41;;;;;;;6.13;1.70;;;;;;;23.51;56.54;100858.78;5088071;28;20533;-62
2022/07/13 08:30:08;;;;;;;3.53;1.70;;;;;;;23.43;57.24;100850.50;5089266;28;20174;-62
2022/07/13 08:32:33;;;;;;;2.50;1.60;;;;;;;23.41;57.14;100853.78;5089849;28;20183;-62
2022/07/13 08:40:26;;;;;;;4.73;1.73;;;;;;;23.53;57.12;100864.16;5090610;28;20728;-62
2022/07/13 08:42:52;;;;;;;3.27;1.40;;;;;;;23.45;57.54;100860.41;5090831;28;20412;-62
2022/07/13 08:45:17;;;;;;;4.37;1.83;;;;;;;23.49;57.54;100857.53;5088077;28;20178;-62
2022/07/13 08:47:43;;;;;;;6.20;2.10;;;;;;;23.55;57.52;100853.88;5089127;28;20182;-62
2022/07/13 08:50:09;;;;;;;2.53;1.50;;;;;;;23.59;57.20;100860.47;5088801;28;20166;-62
2022/07/13 08:52:35;;;;;;;3.70;1.77;;;;;;;23.62;56.62;100859.66;5089359;28;20182;-62
2022/07/13 08:55:03;;;;;;;3.37;1.50;;;;;;;23.62;55.90;100853.91;5089096;28;20888;-62
2022/07/13 08:57:28;;;;;;;4.63;1.63;;;;;;;23.64;56.65;100851.44;5088732;28;20428;-62
2022/07/13 08:59:54;;;;;;;2.90;1.47;;;;;;;23.65;56.74;100843.63;5088837;28;20416;-62
2022/07/13 09:02:19;;;;;;;4.23;1.90;;;;;;;23.66;56.88;100843.22;5088967;28;20255;-62
2022/07/13 09:04:45;;;;;;;5.13;1.93;;;;;;;23.67;57.30;100833.34;5088502;28;20178;-62
2022/07/13 09:07:11;;;;;;;5.77;1.60;;;;;;;23.74;56.78;100844.91;5070405;28;20285;-62
2022/07/13 09:09:38;;;;;;;3.63;1.50;;;;;;;23.74;57.01;100849.88;5088405;28;20233;-62
2022/07/13 09:12:15;;;;;;;8.63;1.80;;;;;;;23.75;57.83;100846.59;5089381;28;20407;-62
2022/07/13 09:14:40;;;;;;;5.27;1.87;;;;;;;23.79;58.12;100847.41;5092353;28;20423;-62
2022/07/13 09:17:06;;;;;;;3.77;1.63;;;;;;;23.82;57.96;100843.72;5093061;28;20421;-62
2022/07/13 09:19:42;;;;;;;4.27;1.60;;;;;;;23.82;57.63;100852.38;5092072;28;20163;-62
2022/07/13 09:22:11;;;;;;;2.63;1.50;;;;;;;23.83;56.97;100854.03;5091748;28;20205;-62
2022/07/13 09:24:44;;;;;;;3.60;1.80;;;;;;;23.84;56.61;100855.66;5091881;28;20412;-62
2022/07/13 09:27:10;;;;;;;3.90;1.90;;;;;;;23.93;55.45;100858.25;5091801;28;20884;-62
2022/07/13 09:29:38;;;;;;;3.50;1.43;;;;;;;23.90;55.59;100845.47;5091252;28;20416;-62
2022/07/13 09:32:07;;;;;;;2.97;1.70;;;;;;;23.90;55.46;100853.28;5090915;28;20167;-62
2022/07/13 09:34:52;;;;;;;3.17;1.60;;;;;;;23.96;55.13;100860.31;5090149;28;20990;-62
2022/07/13 09:37:36;;;;;;;3.13;1.60;;;;;;;23.92;55.16;100854.53;5090047;28;20408;-62
2022/07/13 09:40:06;;;;;;;3.30;1.53;;;;;;;23.91;54.37;100858.66;5089258;28;20424;-62
2022/07/13 09:42:39;;;;;;;3.03;1.40;;;;;;;23.93;54.16;100852.47;5090185;28;20448;-62
2022/07/13 09:47:54;;;;;;;3.30;1.60;;;;;;;23.92;53.92;100847.91;5093139;28;20404;-62
2022/07/13 09:50:25;;;;;;;1.93;1.20;;;;;;;23.97;54.04;100848.38;5093738;28;20400;-62
2022/07/13 09:52:51;;;;;;;3.80;1.23;;;;;;;24.08;53.51;100845.53;5090522;28;20424;-62
2022/07/13 09:55:22;;;;;;;4.30;1.50;;;;;;;24.02;53.65;100847.13;5093047;28;20507;-62
2022/07/13 09:57:50;;;;;;;2.47;1.40;;;;;;;24.05;53.51;100850.06;5093203;28;20416;-62
2022/07/13 10:00:17;;;;;;;2.90;1.30;;;;;;;24.14;53.44;100849.69;5091616;28;20431;-62
2022/07/13 10:02:44;;;;;;;2.70;1.17;;;;;;;24.09;53.21;100848.00;5091060;28;20456;-62
2022/07/13 10:05:10;;;;;;;3.10;1.40;;;;;;;24.12;53.31;100844.31;5091509;28;20400;-62
2022/07/13 10:07:35;;;;;;;4.70;1.30;;;;;;;24.19;52.05;100844.31;5091220;28;20443;-62
2022/07/13 10:10:04;;;;;;;3.43;1.20;;;;;;;24.18;52.24;100848.44;5091484;28;20562;-62
2022/07/13 10:12:29;;;;;;;2.93;1.40;;;;;;;24.21;52.05;100841.88;5090189;28;20186;-62
2022/07/13 10:14:55;;;;;;;1.90;1.33;;;;;;;24.24;51.47;100838.16;5092274;28;20470;-62
2022/07/13 10:17:21;;;;;;;3.63;1.57;;;;;;;24.16;51.84;100842.28;5092488;28;20171;-62
2022/07/13 10:19:56;;;;;;;2.43;1.20;;;;;;;24.21;51.57;100835.28;5091452;28;20170;-62
2022/07/13 10:22:23;;;;;;;2.57;1.30;;;;;;;24.20;51.41;100839.41;5092414;28;20482;-62
2022/07/13 10:24:58;;;;;;;3.20;1.20;;;;;;;24.22;51.22;100832.00;5074373;28;20490;-62
2022/07/13 10:27:31;;;;;;;5.47;1.30;;;;;;;24.29;51.23;100836.97;5092375;28;20866;-62
2022/07/13 10:30:07;;;;;;;6.90;1.60;;;;;;;24.32;50.90;100831.19;5092486;28;20413;-62
2022/07/13 10:32:37;;;;;;;4.60;1.27;;;;;;;24.46;49.96;100837.00;5092167;28;20408;-62
2022/07/13 10:35:13;;;;;;;2.77;1.60;;;;;;;24.30;50.82;100833.69;5092270;28;20812;-62
2022/07/13 10:37:56;;;;;;;1.90;1.10;;;;;;;24.24;51.57;100829.50;5092550;28;20416;-62
2022/07/13 10:40:23;;;;;;;4.23;1.20;;;;;;;24.36;50.87;100832.03;5092206;28;20459;-62
2022/07/13 10:42:54;;;;;;;8.20;1.40;;;;;;;24.34;51.21;100828.72;5091898;28;20451;-62
2022/07/13 10:45:32;;;;;;;3.37;1.20;;;;;;;24.32;51.30;100824.59;5092062;28;20782;-62
2022/07/13 10:47:58;;;;;;;3.97;2.00;;;;;;;24.30;51.96;100827.06;5090314;28;20882;-62
2022/07/13 10:50:24;;;;;;;6.07;1.50;;;;;;;24.30;51.75;100821.28;5090177;28;20423;-62
2022/07/13 10:52:50;;;;;;;3.23;1.40;;;;;;;24.38;51.98;100820.09;5089638;28;20951;-62
2022/07/13 10:55:16;;;;;;;2.77;1.03;;;;;;;24.62;50.57;100817.28;5088965;28;20752;-62
2022/07/13 10:57:42;;;;;;;2.83;1.00;;;;;;;24.53;50.81;100811.03;5089771;28;20424;-62
2022/07/13 11:00:28;;;;;;;2.47;1.40;;;;;;;24.56;50.85;100807.34;5090591;28;20534;-62
2022/07/13 11:02:56;;;;;;;2.60;1.30;;;;;;;24.41;51.42;100805.66;5091742;28;20197;-62
2022/07/13 11:05:26;;;;;;;8.00;1.30;;;;;;;24.39;51.43;100801.53;5091486;28;20424;-62
2022/07/13 11:07:52;;;;;;;3.73;1.37;;;;;;;24.57;51.71;100799.47;5091800;28;20438;-62
2022/07/13 11:10:22;;;;;;;3.50;1.60;;;;;;;24.77;49.87;100800.78;5091707;28;21226;-62
2022/07/13 11:13:09;;;;;;;3.13;1.23;;;;;;;24.59;51.11;100797.06;5091624;28;20170;-62
2022/07/13 11:15:50;;;;;;;2.40;1.27;;;;;;;24.63;50.28;100792.94;5091490;28;20407;-62
2022/07/13 11:18:21;;;;;;;3.33;1.10;;;;;;;24.63;50.26;100783.47;5091477;28;20412;-62
2022/07/13 11:21:02;;;;;;;3.57;1.13;;;;;;;24.58;50.65;100776.00;5091336;28;20432;-62
2022/07/13 11:26:57;;;;;;;6.90;1.30;;;;;;;24.58;50.87;100778.91;5071858;28;20431;-62
2022/07/13 11:29:52;;;;;;;4.10;1.30;;;;;;;24.53;51.14;100779.28;5092080;28;20416;-62
2022/07/13 11:32:21;;;;;;;2.67;1.23;;;;;;;24.68;50.45;100775.19;5091284;28;20774;-62
2022/07/13 11:34:49;;;;;;;1.80;1.00;;;;;;;24.55;51.05;100770.22;5090843;28;20430;-62